Time;durP1;ratioP1;P1;durP2;ratioP2;P2;SDS_P1;SDS_P2;PMS_P1;PMS_P2;Temp;Humidity;BMP_temperature;BMP_pressure;BME280_temperature;BME280_humidity;BME280_pressure;Samples;Min_cycle;Max_cycle;Signal;HPM_P1;HPM_P2
2023/01/10 00:00:05;;;;;;;;;;;;;;;5.83;83.91;100234.50;108101;1256;73879;-90
2023/01/10 00:02:52;;;;;;;;;;;;;;;5.80;84.02;100238.41;108695;1257;69195;-89
2023/01/10 00:05:19;;;;;;;;;;;;;;;5.78;84.03;100240.79;108851;1255;72205;-91
2023/01/10 00:07:46;;;;;;;;;;;;;;;5.74;83.98;100243.24;108912;1256;59572;-91
2023/01/10 00:10:13;;;;;;;;;;;;;;;5.69;83.96;100243.23;108925;1259;58826;-90
2023/01/10 00:15:25;;;;;;;;;;;;;;;5.55;84.09;100257.49;108712;1257;65871;-91
2023/01/10 00:17:52;;;;;;;;;;;;;;;5.51;84.33;100268.14;108695;1256;72605;-90
2023/01/10 00:20:19;;;;;;;;;;;;;;;5.50;84.50;100271.59;108902;1255;59942;-90
2023/01/10 00:22:48;;;;;;;;;;;;;;;5.52;84.70;100273.77;108830;1256;60636;-90
2023/01/10 00:25:15;;;;;;;;;;;;;;;5.56;84.82;100275.13;108768;1256;75083;-92
2023/01/10 00:27:44;;;;;;;;;;;;;;;5.62;84.87;100275.52;108808;1256;67616;-91
2023/01/10 00:30:13;;;;;;;;;;;;;;;5.66;84.92;100280.36;109002;1259;71372;-91
2023/01/10 00:32:41;;;;;;;;;;;;;;;5.71;85.00;100291.53;109020;1256;59018;-91
2023/01/10 00:35:08;;;;;;;;;;;;;;;5.76;85.03;100296.75;109374;1255;58780;-91
2023/01/10 00:37:37;;;;;;;;;;;;;;;5.84;85.01;100301.57;108187;1256;72492;-92
2023/01/10 00:40:09;;;;;;;;;;;;;;;5.89;85.09;100304.38;107689;1259;65840;-92
2023/01/10 00:45:23;;;;;;;;;;;;;;;5.99;84.90;100308.42;107858;1260;60212;-90
2023/01/10 00:47:51;;;;;;;;;;;;;;;6.03;84.85;100316.05;107963;1256;60162;-91
2023/01/10 00:50:18;;;;;;;;;;;;;;;6.07;84.88;100325.95;108423;1259;72552;-92
2023/01/10 00:52:45;;;;;;;;;;;;;;;6.11;84.63;100339.86;107981;1255;65485;-92
2023/01/10 00:55:12;;;;;;;;;;;;;;;6.15;84.79;100350.09;107629;1262;73025;-91
2023/01/10 00:57:39;;;;;;;;;;;;;;;6.18;84.68;100361.04;107942;1261;59914;-92
2023/01/10 01:00:08;;;;;;;;;;;;;;;6.22;84.69;100366.39;108140;1256;60425;-93
2023/01/10 01:02:35;;;;;;;;;;;;;;;6.23;84.57;100369.23;108034;1260;72400;-91
2023/01/10 01:05:02;;;;;;;;;;;;;;;6.25;84.51;100369.65;107809;1256;65746;-92
2023/01/10 01:07:29;;;;;;;;;;;;;;;6.26;84.40;100375.60;107704;1255;72724;-92
2023/01/10 01:12:42;;;;;;;;;;;;;;;6.29;84.40;100385.98;108037;1259;59460;-93
2023/01/10 01:15:09;;;;;;;;;;;;;;;6.30;84.42;100388.13;107982;1261;74429;-93
2023/01/10 01:17:36;;;;;;;;;;;;;;;6.30;84.35;100387.77;108025;1256;67268;-92
2023/01/10 01:20:03;;;;;;;;;;;;;;;6.30;84.24;100387.92;108080;1262;72542;-92
2023/01/10 01:22:30;;;;;;;;;;;;;;;6.28;84.21;100391.01;107953;1256;58595;-91
2023/01/10 01:24:57;;;;;;;;;;;;;;;6.29;84.25;100398.38;107980;1256;60328;-93
2023/01/10 01:27:24;;;;;;;;;;;;;;;6.32;84.30;100398.46;107901;1255;75148;-92
2023/01/10 01:29:51;;;;;;;;;;;;;;;6.31;84.12;100396.67;107994;1256;66209;-92
2023/01/10 01:32:18;;;;;;;;;;;;;;;6.29;83.99;100399.06;107964;1257;71813;-91
2023/01/10 01:34:45;;;;;;;;;;;;;;;6.28;84.08;100400.60;107817;1255;60479;-91
2023/01/10 01:37:12;;;;;;;;;;;;;;;6.31;84.09;100406.96;107864;1256;60432;-92
2023/01/10 01:39:40;;;;;;;;;;;;;;;6.29;83.93;100410.90;107825;1259;71844;-90
2023/01/10 01:42:17;;;;;;;;;;;;;;;6.24;83.73;100413.34;107660;1259;65822;-91
2023/01/10 01:44:44;;;;;;;;;;;;;;;6.17;83.60;100409.25;108089;1261;73230;-91
2023/01/10 01:47:17;;;;;;;;;;;;;;;6.11;83.56;100412.84;108090;1257;60377;-91
2023/01/10 01:49:44;;;;;;;;;;;;;;;6.04;83.57;100413.45;108153;1256;59851;-91
2023/01/10 01:52:14;;;;;;;;;;;;;;;5.99;83.52;100417.27;108257;1257;74341;-91
2023/01/10 01:54:41;;;;;;;;;;;;;;;5.94;83.58;100415.86;107913;1257;65764;-92
2023/01/10 01:57:12;;;;;;;;;;;;;;;5.91;83.71;100416.26;107817;1256;71865;-91
2023/01/10 01:59:40;;;;;;;;;;;;;;;5.88;83.74;100420.14;108069;1256;60375;-92
2023/01/10 02:02:10;;;;;;;;;;;;;;;5.88;83.83;100421.88;108149;1256;59624;-91
2023/01/10 02:04:41;;;;;;;;;;;;;;;5.87;83.78;100429.84;107830;1256;74141;-91
2023/01/10 02:07:08;;;;;;;;;;;;;;;5.86;83.87;100432.42;107771;1257;65905;-91
2023/01/10 02:09:55;;;;;;;;;;;;;;;5.83;83.69;100434.57;107983;1256;71428;-90
2023/01/10 02:12:22;;;;;;;;;;;;;;;5.79;83.66;100432.48;108202;1256;60924;-92
2023/01/10 02:14:49;;;;;;;;;;;;;;;5.76;83.68;100434.30;108254;1260;59409;-91
2023/01/10 02:17:16;;;;;;;;;;;;;;;5.75;83.72;100441.40;108188;1256;74415;-91
2023/01/10 02:19:43;;;;;;;;;;;;;;;5.75;83.85;100442.08;108111;1261;67614;-91
2023/01/10 02:22:10;;;;;;;;;;;;;;;5.74;83.94;100443.27;108037;1256;73243;-91
2023/01/10 02:25:03;;;;;;;;;;;;;;;5.72;83.87;100445.09;107881;1256;60485;-91
2023/01/10 02:27:34;;;;;;;;;;;;;;;5.65;83.68;100448.47;107342;1262;60831;-91
2023/01/10 02:30:21;;;;;;;;;;;;;;;5.58;83.65;100454.14;107723;1262;74215;-91
2023/01/10 02:32:49;;;;;;;;;;;;;;;5.52;83.73;100455.46;107588;1266;68179;-91
2023/01/10 02:35:19;;;;;;;;;;;;;;;5.47;83.66;100457.35;107292;1262;72774;-91
2023/01/10 02:37:53;;;;;;;;;;;;;;;5.44;83.76;100469.08;107268;1261;60474;-91
2023/01/10 02:40:21;;;;;;;;;;;;;;;5.44;83.91;100462.61;107426;1268;59890;-92
2023/01/10 02:43:00;;;;;;;;;;;;;;;5.46;84.06;100460.09;107350;1262;74337;-92
2023/01/10 02:45:31;;;;;;;;;;;;;;;5.45;83.93;100454.12;107180;1262;67160;-91
2023/01/10 02:47:58;;;;;;;;;;;;;;;5.41;83.84;100457.27;107293;1262;72671;-91
2023/01/10 02:50:40;;;;;;;;;;;;;;;5.36;83.67;100463.52;107429;1262;59424;-91
2023/01/10 02:53:17;;;;;;;;;;;;;;;5.30;83.71;100468.13;107624;1262;59889;-92
2023/01/10 02:55:47;;;;;;;;;;;;;;;5.24;83.67;100470.33;107265;1262;73838;-92
2023/01/10 02:58:18;;;;;;;;;;;;;;;5.19;83.68;100467.16;107430;1262;67596;-91
2023/01/10 03:00:52;;;;;;;;;;;;;;;5.16;83.71;100468.27;107317;1263;71437;-93
2023/01/10 03:03:26;;;;;;;;;;;;;;;5.13;83.87;100469.16;107498;1262;59799;-92
2023/01/10 03:05:59;;;;;;;;;;;;;;;5.12;83.86;100471.36;107632;1256;60887;-91
2023/01/10 03:08:45;;;;;;;;;;;;;;;5.14;84.04;100475.27;107838;1256;73492;-91
2023/01/10 03:11:12;;;;;;;;;;;;;;;5.16;84.03;100476.26;109125;1256;66519;-92
2023/01/10 03:13:56;;;;;;;;;;;;;;;5.19;84.14;100482.80;108792;1256;71065;-90
2023/01/10 03:16:29;;;;;;;;;;;;;;;5.19;83.92;100484.36;108129;1255;60378;-91
2023/01/10 03:19:03;;;;;;;;;;;;;;;5.13;83.76;100486.56;107769;1256;60462;-90
2023/01/10 03:21:30;;;;;;;;;;;;;;;5.11;83.79;100500.04;107635;1256;72667;-91
2023/01/10 03:24:00;;;;;;;;;;;;;;;5.09;83.80;100506.89;107702;1256;67577;-92
2023/01/10 03:26:32;;;;;;;;;;;;;;;5.07;83.85;100505.61;107800;1256;71941;-91
2023/01/10 03:29:04;;;;;;;;;;;;;;;5.08;83.92;100506.50;107761;1260;60451;-91
2023/01/10 03:31:36;;;;;;;;;;;;;;;5.10;84.02;100512.33;108049;1255;60422;-91
2023/01/10 03:34:03;;;;;;;;;;;;;;;5.13;84.03;100518.90;107791;1255;75161;-91
2023/01/10 03:36:37;;;;;;;;;;;;;;;5.16;84.10;100525.83;107834;1257;67079;-90
2023/01/10 03:39:27;;;;;;;;;;;;;;;5.20;84.06;100533.63;107618;1262;72704;-91
2023/01/10 03:41:58;;;;;;;;;;;;;;;5.21;83.95;100539.42;107672;1256;60494;-90
2023/01/10 03:44:43;;;;;;;;;;;;;;;5.19;83.83;100540.23;107779;1256;58743;-90
2023/01/10 03:47:10;;;;;;;;;;;;;;;5.22;83.85;100548.16;108231;1256;74538;-91
2023/01/10 03:49:41;;;;;;;;;;;;;;;5.22;83.90;100550.63;108235;1256;65563;-91
2023/01/10 03:52:09;;;;;;;;;;;;;;;5.25;83.90;100552.81;108154;1256;71174;-91
2023/01/10 03:54:36;;;;;;;;;;;;;;;5.27;83.82;100557.10;108378;1256;59012;-89
2023/01/10 03:57:04;;;;;;;;;;;;;;;5.27;83.76;100561.27;107756;1256;60410;-91
2023/01/10 03:59:31;;;;;;;;;;;;;;;5.27;83.75;100566.14;107655;1255;72479;-93
2023/01/10 04:01:58;;;;;;;;;;;;;;;5.23;83.67;100564.56;107851;1256;64929;-92
2023/01/10 04:04:25;;;;;;;;;;;;;;;5.22;83.62;100573.58;107733;1262;71962;-91
2023/01/10 04:06:52;;;;;;;;;;;;;;;5.19;83.47;100576.23;108104;1259;59842;-92
2023/01/10 04:09:19;;;;;;;;;;;;;;;5.17;83.60;100589.02;108774;1256;58568;-92
2023/01/10 04:11:46;;;;;;;;;;;;;;;5.16;83.60;100600.98;108710;1256;72751;-91
2023/01/10 04:14:13;;;;;;;;;;;;;;;5.16;83.65;100601.83;108849;1256;65515;-92
2023/01/10 04:16:40;;;;;;;;;;;;;;;5.18;83.72;100608.35;108784;1255;71144;-93
2023/01/10 04:19:07;;;;;;;;;;;;;;;5.21;83.74;100608.47;108762;1256;60425;-92
2023/01/10 04:21:34;;;;;;;;;;;;;;;5.23;83.87;100611.53;108735;1262;60909;-92
2023/01/10 04:24:01;;;;;;;;;;;;;;;5.28;83.90;100615.40;108869;1259;75009;-93
2023/01/10 04:26:28;;;;;;;;;;;;;;;5.30;83.79;100624.19;108717;1257;65703;-91
2023/01/10 04:28:55;;;;;;;;;;;;;;;5.31;83.76;100625.27;108894;1256;72769;-92
2023/01/10 04:31:22;;;;;;;;;;;;;;;5.32;83.73;100624.60;108739;1256;59346;-91
2023/01/10 04:33:49;;;;;;;;;;;;;;;5.32;83.76;100631.42;108818;1256;58850;-91
2023/01/10 04:36:16;;;;;;;;;;;;;;;5.35;83.80;100640.95;108933;1256;74493;-91
2023/01/10 04:38:43;;;;;;;;;;;;;;;5.38;83.73;100649.77;108856;1256;67040;-91
2023/01/10 04:41:10;;;;;;;;;;;;;;;5.39;83.79;100654.34;108818;1260;73668;-92
2023/01/10 04:43:37;;;;;;;;;;;;;;;5.41;83.76;100661.40;108995;1256;59247;-92
2023/01/10 04:46:04;;;;;;;;;;;;;;;5.43;83.85;100658.17;108840;1257;58818;-92
2023/01/10 04:48:31;;;;;;;;;;;;;;;5.44;83.82;100660.66;108854;1257;73963;-91
2023/01/10 04:51:01;;;;;;;;;;;;;;;5.48;83.82;100667.59;108197;1256;65661;-95
2023/01/10 04:53:32;;;;;;;;;;;;;;;5.49;83.80;100673.59;107997;1256;71925;-92
2023/01/10 04:56:05;;;;;;;;;;;;;;;5.49;83.74;100676.88;108272;1256;59542;-92
2023/01/10 04:58:35;;;;;;;;;;;;;;;5.50;83.71;100680.44;107682;1256;60764;-92
2023/01/10 05:01:06;;;;;;;;;;;;;;;5.51;83.75;100687.22;107807;1257;72616;-92
2023/01/10 05:03:33;;;;;;;;;;;;;;;5.53;83.78;100690.30;107666;1256;64777;-91
2023/01/10 05:06:02;;;;;;;;;;;;;;;5.55;83.78;100692.80;107813;1255;71453;-94
2023/01/10 05:08:29;;;;;;;;;;;;;;;5.58;83.78;100704.08;107740;1256;60759;-94
2023/01/10 05:10:56;;;;;;;;;;;;;;;5.59;83.71;100703.64;108812;1256;61599;-93
2023/01/10 05:13:26;;;;;;;;;;;;;;;5.61;83.72;100703.87;108981;1256;71598;-94
2023/01/10 05:15:57;;;;;;;;;;;;;;;5.62;83.66;100717.51;108912;1256;66996;-92
2023/01/10 05:18:24;;;;;;;;;;;;;;;5.62;83.59;100716.45;108893;1256;73262;-91
2023/01/10 05:20:51;;;;;;;;;;;;;;;5.61;83.50;100720.42;108694;1257;59606;-94
2023/01/10 05:23:18;;;;;;;;;;;;;;;5.63;83.56;100725.23;107914;1261;60239;-91
2023/01/10 05:25:49;;;;;;;;;;;;;;;5.63;83.57;100729.19;108201;1260;74090;-92
2023/01/10 05:28:16;;;;;;;;;;;;;;;5.61;83.48;100726.70;108006;1262;67649;-91
2023/01/10 05:30:43;;;;;;;;;;;;;;;5.62;83.56;100734.40;108072;1257;72819;-91
2023/01/10 05:33:13;;;;;;;;;;;;;;;5.63;83.54;100738.08;108764;1257;59531;-93
2023/01/10 05:35:40;;;;;;;;;;;;;;;5.64;83.62;100745.27;108355;1255;60435;-91
2023/01/10 05:38:07;;;;;;;;;;;;;;;5.64;83.55;100743.55;107763;1256;73874;-90
2023/01/10 05:40:34;;;;;;;;;;;;;;;5.65;83.51;100746.54;108868;1257;68537;-92
2023/01/10 05:43:01;;;;;;;;;;;;;;;5.67;83.56;100748.17;108899;1262;73200;-92
2023/01/10 05:45:28;;;;;;;;;;;;;;;5.70;83.57;100748.80;108862;1256;58907;-93
2023/01/10 05:47:55;;;;;;;;;;;;;;;5.70;83.48;100747.44;109267;1256;60151;-92
2023/01/10 05:50:23;;;;;;;;;;;;;;;5.68;83.42;100751.88;109194;1256;73303;-93
2023/01/10 05:52:50;;;;;;;;;;;;;;;5.65;83.25;100752.13;108519;1257;66280;-91
2023/01/10 05:55:18;;;;;;;;;;;;;;;5.63;83.40;100756.91;108143;1256;73022;-91
2023/01/10 05:57:52;;;;;;;;;;;;;;;5.62;83.42;100764.68;108955;1255;59267;-91
2023/01/10 06:00:19;;;;;;;;;;;;;;;5.63;83.54;100770.11;107898;1257;60489;-91
2023/01/10 06:02:46;;;;;;;;;;;;;;;5.61;83.49;100770.39;107778;1262;73787;-91
2023/01/10 06:05:17;;;;;;;;;;;;;;;5.60;83.32;100779.39;108030;1257;67160;-93
2023/01/10 06:07:44;;;;;;;;;;;;;;;5.56;83.26;100783.56;108097;1259;71550;-93
2023/01/10 06:10:11;;;;;;;;;;;;;;;5.54;83.21;100782.58;108098;1261;60472;-93
2023/01/10 06:12:38;;;;;;;;;;;;;;;5.52;83.28;100787.22;108101;1262;60570;-92
2023/01/10 06:15:06;;;;;;;;;;;;;;;5.51;83.20;100793.77;108055;1256;73080;-92
2023/01/10 06:17:33;;;;;;;;;;;;;;;5.50;83.27;100794.95;108120;1262;67789;-92
2023/01/10 06:20:00;;;;;;;;;;;;;;;5.48;83.17;100806.01;108166;1256;73268;-92
2023/01/10 06:22:27;;;;;;;;;;;;;;;5.47;83.23;100816.38;108093;1255;58757;-92
2023/01/10 06:24:55;;;;;;;;;;;;;;;5.44;83.07;100818.53;107982;1256;59117;-92
2023/01/10 06:27:24;;;;;;;;;;;;;;;5.42;83.03;100819.12;108768;1261;74563;-92
2023/01/10 06:29:51;;;;;;;;;;;;;;;5.39;83.08;100823.65;108871;1257;65680;-92
2023/01/10 06:32:18;;;;;;;;;;;;;;;5.35;83.12;100836.90;108934;1256;71599;-92
2023/01/10 06:34:45;;;;;;;;;;;;;;;5.31;83.00;100841.72;108829;1256;58644;-92
2023/01/10 06:37:12;;;;;;;;;;;;;;;5.26;83.07;100847.77;108854;1261;58752;-93
2023/01/10 06:39:39;;;;;;;;;;;;;;;5.22;83.10;100849.99;108818;1260;74428;-92
2023/01/10 06:42:06;;;;;;;;;;;;;;;5.18;83.12;100857.15;108812;1262;67142;-92
2023/01/10 06:44:33;;;;;;;;;;;;;;;5.17;83.13;100855.70;108837;1257;72698;-92
2023/01/10 06:47:00;;;;;;;;;;;;;;;5.16;83.24;100855.80;108806;1258;59403;-92
2023/01/10 06:49:28;;;;;;;;;;;;;;;5.16;83.34;100863.45;108817;1262;58810;-92
2023/01/10 06:51:55;;;;;;;;;;;;;;;5.16;83.28;100861.35;108400;1261;73742;-92
2023/01/10 06:54:22;;;;;;;;;;;;;;;5.13;83.23;100860.72;107818;1257;65857;-92
2023/01/10 06:56:52;;;;;;;;;;;;;;;5.14;83.34;100864.56;107591;1262;72744;-91
2023/01/10 06:59:19;;;;;;;;;;;;;;;5.14;83.30;100867.88;107800;1256;60289;-91
2023/01/10 07:01:46;;;;;;;;;;;;;;;5.12;83.29;100870.02;107612;1261;60388;-90
2023/01/10 07:04:13;;;;;;;;;;;;;;;5.10;83.30;100872.20;107402;1265;73260;-91
2023/01/10 07:06:40;;;;;;;;;;;;;;;5.10;83.37;100880.41;107681;1261;64509;-95
2023/01/10 07:09:08;;;;;;;;;;;;;;;5.11;83.43;100885.30;107452;1263;71434;-91
2023/01/10 07:11:35;;;;;;;;;;;;;;;5.09;83.38;100889.20;107506;1262;59180;-90
2023/01/10 07:14:02;;;;;;;;;;;;;;;5.04;83.37;100896.12;107549;1256;60474;-91
2023/01/10 07:16:30;;;;;;;;;;;;;;;5.02;83.24;100903.81;107645;1261;74831;-91
2023/01/10 07:18:57;;;;;;;;;;;;;;;4.98;83.16;100909.17;107971;1257;66349;-91
2023/01/10 07:21:25;;;;;;;;;;;;;;;4.92;83.05;100905.61;107513;1257;72699;-91
2023/01/10 07:23:52;;;;;;;;;;;;;;;4.85;82.89;100901.61;107500;1257;59976;-91
2023/01/10 07:26:19;;;;;;;;;;;;;;;4.80;83.07;100904.63;107583;1262;60322;-92
2023/01/10 07:28:52;;;;;;;;;;;;;;;4.71;82.99;100903.30;107687;1258;72197;-91
2023/01/10 07:31:19;;;;;;;;;;;;;;;4.67;82.93;100910.05;107741;1256;65981;-91
2023/01/10 07:33:46;;;;;;;;;;;;;;;4.64;82.96;100915.11;107790;1256;72440;-92
2023/01/10 07:36:15;;;;;;;;;;;;;;;4.60;83.07;100919.79;107645;1260;59542;-92
2023/01/10 07:38:42;;;;;;;;;;;;;;;4.57;83.02;100926.05;107525;1257;60398;-91
2023/01/10 07:41:09;;;;;;;;;;;;;;;4.55;83.18;100928.55;107823;1255;73900;-92
2023/01/10 07:43:36;;;;;;;;;;;;;;;4.53;83.19;100924.30;107807;1261;65096;-91
2023/01/10 07:46:04;;;;;;;;;;;;;;;4.54;83.40;100928.86;107746;1261;73115;-91
2023/01/10 07:48:31;;;;;;;;;;;;;;;4.53;83.23;100929.68;107727;1257;60179;-92
2023/01/10 07:50:58;;;;;;;;;;;;;;;4.54;83.29;100933.35;107772;1258;60128;-91
2023/01/10 07:53:26;;;;;;;;;;;;;;;4.56;83.29;100941.64;107896;1261;73943;-92
2023/01/10 07:55:53;;;;;;;;;;;;;;;4.55;83.29;100944.05;107904;1259;67319;-91
2023/01/10 07:58:20;;;;;;;;;;;;;;;4.54;83.21;100950.23;107529;1256;72732;-91
2023/01/10 08:00:49;;;;;;;;;;;;;;;4.54;83.20;100956.66;107622;1263;59309;-91
2023/01/10 08:03:18;;;;;;;;;;;;;;;4.57;83.17;100962.53;107539;1262;59613;-90
2023/01/10 08:05:49;;;;;;;;;;;;;;;4.59;83.14;100963.18;107587;1262;72299;-91
2023/01/10 08:08:16;;;;;;;;;;;;;;;4.61;83.03;100962.06;107901;1260;66361;-91
2023/01/10 08:10:44;;;;;;;;;;;;;;;4.61;83.01;100965.05;108073;1258;73089;-91
2023/01/10 08:13:14;;;;;;;;;;;;;;;4.62;82.96;100971.70;107484;1262;60380;-91
2023/01/10 08:15:41;;;;;;;;;;;;;;;4.60;82.92;100977.85;108593;1262;59750;-92
2023/01/10 08:18:08;;;;;;;;;;;;;;;4.57;82.75;100989.52;108702;1257;74358;-91
2023/01/10 08:20:35;;;;;;;;;;;;;;;4.55;82.78;100995.63;107850;1262;67178;-92
2023/01/10 08:23:02;;;;;;;;;;;;;;;4.60;83.07;100997.13;107908;1256;71959;-91
2023/01/10 08:25:29;;;;;;;;;;;;;;;4.65;83.04;101011.31;108243;1263;58977;-91
2023/01/10 08:27:56;;;;;;;;;;;;;;;4.72;83.10;101022.10;108748;1256;330638;-92
2023/01/10 08:30:23;;;;;;;;;;;;;;;4.79;83.26;101020.23;108442;1256;72258;-92
2023/01/10 08:32:51;;;;;;;;;;;;;;;4.89;83.23;101021.25;108005;1257;65410;-91
2023/01/10 08:35:18;;;;;;;;;;;;;;;4.98;83.36;101025.20;107547;1260;71561;-91
2023/01/10 08:37:47;;;;;;;;;;;;;;;5.08;83.29;101028.33;107520;1257;60546;-91
2023/01/10 08:40:14;;;;;;;;;;;;;;;5.17;83.30;101030.16;107611;1261;59446;-91
2023/01/10 08:42:42;;;;;;;;;;;;;;;5.25;83.31;101031.62;107729;1266;73147;-92
2023/01/10 08:45:09;;;;;;;;;;;;;;;5.34;83.19;101035.57;107675;1258;65944;-91
2023/01/10 08:47:37;;;;;;;;;;;;;;;5.42;83.11;101035.61;107897;1258;71104;-91
2023/01/10 08:50:04;;;;;;;;;;;;;;;5.49;83.17;101039.48;108108;1258;59039;-91
2023/01/10 08:52:31;;;;;;;;;;;;;;;5.58;83.19;101044.42;107885;1262;59719;-92
2023/01/10 08:55:18;;;;;;;;;;;;;;;5.68;83.01;101057.27;107738;1255;73783;-91
2023/01/10 08:57:48;;;;;;;;;;;;;;;5.77;83.02;101059.64;107652;1260;67610;-92
2023/01/10 09:00:16;;;;;;;;;;;;;;;5.88;83.07;101064.34;107558;1257;72971;-92
2023/01/10 09:02:57;;;;;;;;;;;;;;;5.97;82.96;101061.89;107827;1256;58895;-92
2023/01/10 09:05:24;;;;;;;;;;;;;;;6.07;82.90;101064.42;107991;1260;60542;-92
2023/01/10 09:07:52;;;;;;;;;;;;;;;6.17;82.95;101071.33;107714;1257;72513;-91
2023/01/10 09:13:18;;;;;;;;;;;;;;;6.25;82.52;101083.05;107998;1258;71261;-91
2023/01/10 09:15:45;;;;;;;;;;;;;;;6.30;82.59;101083.81;107977;1257;60018;-91
2023/01/10 09:18:43;;;;;;;;;;;;;;;6.38;82.52;101085.58;107898;1256;60428;-90
2023/01/10 09:21:10;;;;;;;;;;;;;;;6.46;82.45;101090.67;107111;1264;74913;-91
2023/01/10 09:23:38;;;;;;;;;;;;;;;6.51;82.32;101091.43;107325;1264;64781;-91
2023/01/10 09:26:07;;;;;;;;;;;;;;;6.57;82.16;101096.40;107461;1267;72443;-92
2023/01/10 09:28:34;;;;;;;;;;;;;;;6.59;82.04;101095.11;107354;1264;59657;-92
2023/01/10 09:31:03;;;;;;;;;;;;;;;6.64;81.92;101098.64;107102;1266;58904;-91
2023/01/10 09:33:30;;;;;;;;;;;;;;;6.70;81.98;101097.22;107275;1268;72078;-91
2023/01/10 09:35:57;;;;;;;;;;;;;;;6.78;81.93;101102.12;107518;1269;65937;-92
2023/01/10 09:38:24;;;;;;;;;;;;;;;6.84;81.79;101105.64;107424;1264;71064;-93
2023/01/10 09:41:10;;;;;;;;;;;;;;;6.87;81.69;101110.16;107184;1264;60675;-91
2023/01/10 09:43:41;;;;;;;;;;;;;;;6.93;81.72;101122.34;107179;1263;60821;-91
2023/01/10 09:46:08;;;;;;;;;;;;;;;6.99;81.63;101126.09;107336;1264;73454;-91
2023/01/10 09:48:54;;;;;;;;;;;;;;;7.04;81.50;101126.80;107283;1268;67452;-92
2023/01/10 09:51:32;;;;;;;;;;;;;;;7.08;81.47;101124.04;106997;1269;74337;-91
2023/01/10 09:53:59;;;;;;;;;;;;;;;7.16;81.32;101125.10;106995;1270;58769;-91
2023/01/10 09:56:27;;;;;;;;;;;;;;;7.19;81.18;101124.38;107138;1263;60469;-92
2023/01/10 09:58:54;;;;;;;;;;;;;;;7.23;81.08;101126.29;107505;1256;73937;-90
2023/01/10 10:01:36;;;;;;;;;;;;;;;7.24;80.91;101125.28;107939;1257;67038;-91
2023/01/10 10:04:12;;;;;;;;;;;;;;;7.25;80.88;101118.86;107862;1257;72225;-94
2023/01/10 10:06:40;;;;;;;;;;;;;;;7.30;80.96;101116.10;107994;1257;58665;-92
2023/01/10 10:09:09;;;;;;;;;;;;;;;7.35;80.85;101116.66;107980;1261;60563;-93
2023/01/10 10:11:40;;;;;;;;;;;;;;;7.40;80.86;101121.96;107713;1260;74278;-94
2023/01/10 10:14:16;;;;;;;;;;;;;;;7.47;80.79;101123.47;107577;1257;65581;-93
2023/01/10 10:16:53;;;;;;;;;;;;;;;7.54;80.75;101128.31;107959;1257;71393;-92
2023/01/10 10:19:20;;;;;;;;;;;;;;;7.60;80.68;101128.23;108106;1257;59461;-93
2023/01/10 10:21:52;;;;;;;;;;;;;;;7.66;80.62;101127.63;107938;1257;59968;-92
2023/01/10 10:24:19;;;;;;;;;;;;;;;7.72;80.58;101131.54;107866;1257;74037;-92
2023/01/10 10:26:46;;;;;;;;;;;;;;;7.77;80.43;101135.98;108263;1258;65918;-93
2023/01/10 10:29:14;;;;;;;;;;;;;;;7.83;80.32;101136.54;108013;1257;73185;-92
2023/01/10 10:31:41;;;;;;;;;;;;;;;7.88;80.30;101133.63;107892;1258;60379;-93
2023/01/10 10:34:13;;;;;;;;;;;;;;;7.93;80.26;101135.21;108057;1257;58981;-92
2023/01/10 10:36:45;;;;;;;;;;;;;;;7.99;80.27;101136.52;108321;1254;73843;-93
2023/01/10 10:39:15;;;;;;;;;;;;;;;8.10;80.21;101139.95;107836;1258;67494;-93
2023/01/10 10:41:43;;;;;;;;;;;;;;;8.19;80.20;101136.30;107780;1261;73174;-91
2023/01/10 10:44:35;;;;;;;;;;;;;;;8.24;79.91;101133.67;107879;1257;59838;-92
2023/01/10 10:47:10;;;;;;;;;;;;;;;8.27;79.81;101134.52;108273;1257;60380;-92
2023/01/10 10:49:44;;;;;;;;;;;;;;;8.31;79.83;101131.18;107541;1263;72383;-93
2023/01/10 10:52:23;;;;;;;;;;;;;;;8.41;79.77;101137.90;107570;1257;65901;-93
2023/01/10 10:54:52;;;;;;;;;;;;;;;8.46;79.77;101136.17;107611;1255;72711;-93
2023/01/10 10:57:29;;;;;;;;;;;;;;;8.51;79.67;101132.90;107509;1264;61117;-93
2023/01/10 11:00:17;;;;;;;;;;;;;;;8.54;79.53;101128.83;107687;1256;58618;-92
2023/01/10 11:02:49;;;;;;;;;;;;;;;8.60;79.55;101129.20;108071;1260;73184;-93
2023/01/10 11:05:17;;;;;;;;;;;;;;;8.67;79.40;101133.34;109078;1257;67136;-93
2023/01/10 11:07:45;;;;;;;;;;;;;;;8.71;79.34;101134.91;108498;1256;72121;-92
2023/01/10 11:12:51;;;;;;;;;;;;;;;8.84;79.17;101135.20;107585;1256;59444;-93
2023/01/10 11:15:51;;;;;;;;;;;;;;;8.88;78.96;101135.71;107593;1257;72284;-93
2023/01/10 11:18:19;;;;;;;;;;;;;;;8.92;78.94;101140.78;107207;1264;65937;-93
2023/01/10 11:20:50;;;;;;;;;;;;;;;8.98;78.87;101141.68;107154;1269;72833;-93
2023/01/10 11:23:35;;;;;;;;;;;;;;;9.00;78.70;101143.48;107206;1264;59318;-94
2023/01/10 11:26:03;;;;;;;;;;;;;;;9.06;78.66;101141.98;107373;1264;60922;-92
2023/01/10 11:28:31;;;;;;;;;;;;;;;9.12;78.75;101143.27;107386;1263;74771;-93
2023/01/10 11:30:58;;;;;;;;;;;;;;;9.20;78.72;101146.00;107595;1263;67652;-93
2023/01/10 11:33:44;;;;;;;;;;;;;;;9.24;78.59;101147.91;107567;1263;70844;-93
2023/01/10 11:36:12;;;;;;;;;;;;;;;9.28;78.32;101156.81;107378;1263;58816;-93
2023/01/10 11:38:39;;;;;;;;;;;;;;;9.32;78.39;101159.06;107047;1267;60048;-93
2023/01/10 11:41:18;;;;;;;;;;;;;;;9.35;78.35;101159.70;107270;1263;74070;-93
2023/01/10 11:43:46;;;;;;;;;;;;;;;9.39;78.11;101159.48;107254;1264;67474;-93
2023/01/10 11:46:19;;;;;;;;;;;;;;;9.39;78.16;101161.05;107247;1264;71452;-93
2023/01/10 11:49:17;;;;;;;;;;;;;;;;;;;;;
2023/01/10 12:09:44;;;;;;;;;;;;;;;;;;;;;
2023/01/10 12:12:26;;;;;;;;;;;;;;;9.60;77.73;101183.36;107471;1270;73864;-93
2023/01/10 12:15:39;;;;;;;;;;;;;;;9.59;77.76;101188.39;106469;1270;68031;-93
2023/01/10 12:18:06;;;;;;;;;;;;;;;9.61;77.78;101192.68;105984;1279;72965;-93
2023/01/10 12:20:34;;;;;;;;;;;;;;;9.64;77.73;101195.77;105962;1280;59603;-93
2023/01/10 12:23:06;;;;;;;;;;;;;;;9.66;77.58;101196.02;105624;1283;60580;-92
2023/01/10 12:25:37;;;;;;;;;;;;;;;9.60;77.36;101203.86;105883;1279;74011;-93
2023/01/10 12:28:29;;;;;;;;;;;;;;;9.52;77.10;101207.25;105578;1279;65822;-93
2023/01/10 12:30:57;;;;;;;;;;;;;;;9.36;76.92;101209.48;105424;1280;73785;-92
2023/01/10 12:33:25;;;;;;;;;;;;;;;9.23;76.86;101207.04;105467;1280;60487;-93
2023/01/10 12:35:52;;;;;;;;;;;;;;;9.09;76.92;101216.87;106212;1273;60395;-93
2023/01/10 12:44:13;;;;;;;;;;;;;;;8.70;77.28;101223.20;107312;1263;72143;-92
2023/01/10 12:46:49;;;;;;;;;;;;;;;8.59;77.36;101226.26;107284;1270;59822;-94
2023/01/10 12:49:23;;;;;;;;;;;;;;;8.52;77.41;101231.23;107063;1265;60446;-94
2023/01/10 12:51:51;;;;;;;;;;;;;;;8.46;77.52;101232.89;106932;1257;73550;-94
2023/01/10 12:54:25;;;;;;;;;;;;;;;8.40;77.68;101233.84;107657;1256;66790;-91
2023/01/10 12:56:57;;;;;;;;;;;;;;;8.35;77.66;101237.65;107858;1256;74495;-92
2023/01/10 12:59:26;;;;;;;;;;;;;;;8.29;77.76;101241.27;107904;1257;60391;-92
2023/01/10 13:01:54;;;;;;;;;;;;;;;8.25;77.81;101246.35;107557;1262;59359;-92
2023/01/10 13:04:30;;;;;;;;;;;;;;;8.23;77.91;101253.06;107659;1257;73913;-93
2023/01/10 13:06:58;;;;;;;;;;;;;;;8.19;77.88;101253.09;107672;1259;67482;-93
2023/01/10 13:09:26;;;;;;;;;;;;;;;8.18;78.14;101256.35;108161;1256;71424;-93
2023/01/10 13:11:54;;;;;;;;;;;;;;;8.17;78.08;101254.58;107663;1256;58719;-93
2023/01/10 13:14:24;;;;;;;;;;;;;;;8.14;78.10;101264.23;107734;1258;60040;-91
2023/01/10 13:16:55;;;;;;;;;;;;;;;8.12;78.14;101265.73;107466;1256;74059;-94
2023/01/10 13:19:26;;;;;;;;;;;;;;;8.12;78.11;101275.48;107807;1256;65813;-92
2023/01/10 13:22:17;;;;;;;;;;;;;;;8.09;78.33;101272.73;108193;1256;73092;-91
2023/01/10 13:24:54;;;;;;;;;;;;;;;8.06;78.18;101276.80;107967;1255;59490;-93
2023/01/10 13:27:21;;;;;;;;;;;;;;;8.00;78.17;101276.36;107496;1256;60935;-91
2023/01/10 13:29:53;;;;;;;;;;;;;;;7.93;78.13;101279.60;107644;1260;72515;-91